sensor_id;sensor_type;location;lat;lon;timestamp;pressure;altitude;pressure_sealevel;temperature;humidity
11605;BME280;5858;43.076;25.626;2023-06-10T00:00:50;98769.22;;;17.72;75.35
11605;BME280;5858;43.076;25.626;2023-06-10T00:03:18;98764.72;;;17.78;74.44
11605;BME280;5858;43.076;25.626;2023-06-10T00:05:45;98720.78;;;17.30;74.38
11605;BME280;5858;43.076;25.626;2023-06-10T00:08:13;98647.16;;;17.12;73.56
11605;BME280;5858;43.076;25.626;2023-06-10T00:10:41;98661.09;;;17.20;73.58
11605;BME280;5858;43.076;25.626;2023-06-10T00:13:08;98719.28;;;17.23;75.35
11605;BME280;5858;43.076;25.626;2023-06-10T00:15:36;98759.66;;;17.41;76.90
11605;BME280;5858;43.076;25.626;2023-06-10T00:18:04;98753.81;;;17.61;75.64
11605;BME280;5858;43.076;25.626;2023-06-10T00:20:49;98647.75;;;17.02;73.02
11605;BME280;5858;43.076;25.626;2023-06-10T00:23:20;98756.84;;;17.76;73.00
11605;BME280;5858;43.076;25.626;2023-06-10T00:25:47;98746.97;;;17.70;72.85
11605;BME280;5858;43.076;25.626;2023-06-10T00:28:14;98752.00;;;17.78;72.80
11605;BME280;5858;43.076;25.626;2023-06-10T00:30:41;98758.56;;;17.82;72.86
11605;BME280;5858;43.076;25.626;2023-06-10T00:33:09;98765.94;;;17.87;71.91
11605;BME280;5858;43.076;25.626;2023-06-10T00:35:36;98690.94;;;17.25;72.93
11605;BME280;5858;43.076;25.626;2023-06-10T00:38:03;98629.56;;;16.97;71.86
11605;BME280;5858;43.076;25.626;2023-06-10T00:40:33;98697.50;;;17.29;71.39
11605;BME280;5858;43.076;25.626;2023-06-10T00:43:05;98681.03;;;17.31;71.08
11605;BME280;5858;43.076;25.626;2023-06-10T00:45:32;98610.44;;;16.47;72.59
11605;BME280;5858;43.076;25.626;2023-06-10T00:48:00;98505.38;;;15.94;72.74
11605;BME280;5858;43.076;25.626;2023-06-10T00:50:27;98760.84;;;17.34;73.95
11605;BME280;5858;43.076;25.626;2023-06-10T00:52:56;98645.06;;;16.50;74.15
11605;BME280;5858;43.076;25.626;2023-06-10T00:55:24;98502.94;;;15.92;72.52
11605;BME280;5858;43.076;25.626;2023-06-10T00:57:54;98696.56;;;16.95;72.91
11605;BME280;5858;43.076;25.626;2023-06-10T01:00:21;98663.28;;;17.07;72.00
11605;BME280;5858;43.076;25.626;2023-06-10T01:02:51;98735.94;;;17.60;71.42
11605;BME280;5858;43.076;25.626;2023-06-10T01:05:19;98690.06;;;17.37;70.86
11605;BME280;5858;43.076;25.626;2023-06-10T01:07:56;98791.69;;;17.89;70.99
11605;BME280;5858;43.076;25.626;2023-06-10T01:10:29;98778.25;;;17.66;71.72
11605;BME280;5858;43.076;25.626;2023-06-10T01:13:02;98785.38;;;17.55;73.53
11605;BME280;5858;43.076;25.626;2023-06-10T01:15:30;98704.44;;;16.97;73.57
11605;BME280;5858;43.076;25.626;2023-06-10T01:17:58;98664.22;;;16.72;74.50
11605;BME280;5858;43.076;25.626;2023-06-10T01:20:27;98780.47;;;17.41;74.49
11605;BME280;5858;43.076;25.626;2023-06-10T01:22:58;98676.75;;;16.55;75.76
11605;BME280;5858;43.076;25.626;2023-06-10T01:25:39;98680.16;;;16.50;76.80
11605;BME280;5858;43.076;25.626;2023-06-10T01:28:13;98776.31;;;17.21;76.40
11605;BME280;5858;43.076;25.626;2023-06-10T01:30:47;98715.53;;;16.72;76.66
11605;BME280;5858;43.076;25.626;2023-06-10T01:33:18;98568.84;;;16.20;76.14
11605;BME280;5858;43.076;25.626;2023-06-10T01:35:47;98627.03;;;16.27;78.74
11605;BME280;5858;43.076;25.626;2023-06-10T01:38:18;98506.81;;;15.50;79.52
11605;BME280;5858;43.076;25.626;2023-06-10T01:40:46;98548.94;;;15.62;79.69
11605;BME280;5858;43.076;25.626;2023-06-10T01:43:15;98648.75;;;16.21;79.50
11605;BME280;5858;43.076;25.626;2023-06-10T01:45:42;98766.88;;;16.72;79.93
11605;BME280;5858;43.076;25.626;2023-06-10T01:48:09;98677.50;;;16.38;79.45
11605;BME280;5858;43.076;25.626;2023-06-10T01:50:38;98660.38;;;16.21;79.58
11605;BME280;5858;43.076;25.626;2023-06-10T01:53:13;98650.16;;;16.23;79.57
11605;BME280;5858;43.076;25.626;2023-06-10T01:55:41;98683.59;;;16.46;79.57
11605;BME280;5858;43.076;25.626;2023-06-10T01:58:08;98548.06;;;15.50;80.74
11605;BME280;5858;43.076;25.626;2023-06-10T02:00:35;98704.84;;;16.42;80.98
11605;BME280;5858;43.076;25.626;2023-06-10T02:03:03;98772.72;;;16.57;82.87
11605;BME280;5858;43.076;25.626;2023-06-10T02:05:33;98503.81;;;14.93;82.60
11605;BME280;5858;43.076;25.626;2023-06-10T02:08:00;98791.38;;;16.47;83.66
11605;BME280;5858;43.076;25.626;2023-06-10T02:10:27;98668.88;;;15.60;84.29
11605;BME280;5858;43.076;25.626;2023-06-10T02:13:09;98695.91;;;15.83;84.60
11605;BME280;5858;43.076;25.626;2023-06-10T02:15:59;98785.25;;;16.52;84.06
11605;BME280;5858;43.076;25.626;2023-06-10T02:18:27;98810.53;;;16.57;83.41
11605;BME280;5858;43.076;25.626;2023-06-10T02:20:54;98621.09;;;15.37;84.81
11605;BME280;5858;43.076;25.626;2023-06-10T02:23:22;98747.94;;;16.14;85.02
11605;BME280;5858;43.076;25.626;2023-06-10T02:25:49;98562.25;;;14.92;83.97
11605;BME280;5858;43.076;25.626;2023-06-10T02:28:18;98635.00;;;15.64;83.93
11605;BME280;5858;43.076;25.626;2023-06-10T02:30:45;98676.66;;;15.80;84.31
11605;BME280;5858;43.076;25.626;2023-06-10T02:33:13;98697.63;;;15.66;86.02
11605;BME280;5858;43.076;25.626;2023-06-10T02:35:40;98693.19;;;15.41;86.36
11605;BME280;5858;43.076;25.626;2023-06-10T02:38:07;98705.41;;;15.86;85.41
11605;BME280;5858;43.076;25.626;2023-06-10T02:40:35;98781.28;;;16.43;84.69
11605;BME280;5858;43.076;25.626;2023-06-10T02:43:02;98786.19;;;16.34;85.20
11605;BME280;5858;43.076;25.626;2023-06-10T02:45:31;98678.16;;;15.64;85.02
11605;BME280;5858;43.076;25.626;2023-06-10T02:47:58;98793.00;;;16.25;85.61
11605;BME280;5858;43.076;25.626;2023-06-10T02:50:25;98741.78;;;15.95;85.55
11605;BME280;5858;43.076;25.626;2023-06-10T02:52:52;98662.47;;;15.42;85.90
11605;BME280;5858;43.076;25.626;2023-06-10T02:55:20;98768.22;;;15.63;86.96
11605;BME280;5858;43.076;25.626;2023-06-10T02:57:47;98704.53;;;15.62;86.20
11605;BME280;5858;43.076;25.626;2023-06-10T03:00:14;98798.53;;;16.42;85.52
11605;BME280;5858;43.076;25.626;2023-06-10T03:02:43;98708.91;;;15.86;83.73
11605;BME280;5858;43.076;25.626;2023-06-10T03:05:11;98747.22;;;16.65;82.14
11605;BME280;5858;43.076;25.626;2023-06-10T03:07:38;98809.47;;;17.17;81.63
11605;BME280;5858;43.076;25.626;2023-06-10T03:10:07;98812.88;;;17.00;82.34
11605;BME280;5858;43.076;25.626;2023-06-10T03:12:35;98798.91;;;17.04;81.74
11605;BME280;5858;43.076;25.626;2023-06-10T03:15:03;98711.03;;;16.54;81.30
11605;BME280;5858;43.076;25.626;2023-06-10T03:17:30;98726.59;;;16.71;80.03
11605;BME280;5858;43.076;25.626;2023-06-10T03:19:59;98817.34;;;16.95;80.20
11605;BME280;5858;43.076;25.626;2023-06-10T03:22:26;98830.72;;;17.25;79.49
11605;BME280;5858;43.076;25.626;2023-06-10T03:24:54;98806.84;;;17.34;79.22
11605;BME280;5858;43.076;25.626;2023-06-10T03:27:25;98688.00;;;16.87;78.17
11605;BME280;5858;43.076;25.626;2023-06-10T03:29:52;98744.34;;;17.47;77.93
11605;BME280;5858;43.076;25.626;2023-06-10T03:32:21;98529.50;;;16.52;75.43
11605;BME280;5858;43.076;25.626;2023-06-10T03:34:50;98627.69;;;17.43;74.34
11605;BME280;5858;43.076;25.626;2023-06-10T03:37:25;98781.50;;;18.59;72.73
11605;BME280;5858;43.076;25.626;2023-06-10T03:39:52;98738.19;;;18.80;70.50
11605;BME280;5858;43.076;25.626;2023-06-10T03:42:20;98822.09;;;19.96;66.33
11605;BME280;5858;43.076;25.626;2023-06-10T03:44:59;98605.03;;;19.26;62.35
11605;BME280;5858;43.076;25.626;2023-06-10T03:47:33;98592.06;;;19.60;60.82
11605;BME280;5858;43.076;25.626;2023-06-10T03:50:02;98670.09;;;20.06;59.08
11605;BME280;5858;43.076;25.626;2023-06-10T03:52:31;98764.53;;;20.63;59.50
11605;BME280;5858;43.076;25.626;2023-06-10T03:54:59;98828.69;;;21.01;59.25
11605;BME280;5858;43.076;25.626;2023-06-10T03:57:27;98807.81;;;21.17;57.74
11605;BME280;5858;43.076;25.626;2023-06-10T03:59:54;98813.25;;;21.17;58.37
11605;BME280;5858;43.076;25.626;2023-06-10T04:02:22;98747.69;;;20.66;58.47
11605;BME280;5858;43.076;25.626;2023-06-10T04:04:49;98762.59;;;20.59;58.60
11605;BME280;5858;43.076;25.626;2023-06-10T04:07:16;98578.69;;;19.21;59.15
11605;BME280;5858;43.076;25.626;2023-06-10T04:09:45;98697.50;;;19.73;61.99
11605;BME280;5858;43.076;25.626;2023-06-10T04:12:13;98823.75;;;20.56;61.17
11605;BME280;5858;43.076;25.626;2023-06-10T04:14:43;98658.94;;;19.71;61.03
11605;BME280;5858;43.076;25.626;2023-06-10T04:17:14;98684.34;;;19.87;62.16
11605;BME280;5858;43.076;25.626;2023-06-10T04:19:41;98778.72;;;20.70;60.92
11605;BME280;5858;43.076;25.626;2023-06-10T04:22:08;98728.06;;;20.22;61.76
11605;BME280;5858;43.076;25.626;2023-06-10T04:24:58;98809.97;;;21.10;60.52
11605;BME280;5858;43.076;25.626;2023-06-10T04:27:26;98737.53;;;20.20;61.85
11605;BME280;5858;43.076;25.626;2023-06-10T04:29:54;98779.38;;;20.88;60.33
11605;BME280;5858;43.076;25.626;2023-06-10T04:32:21;98770.50;;;21.08;59.06
11605;BME280;5858;43.076;25.626;2023-06-10T04:34:51;98647.66;;;20.73;57.74
11605;BME280;5858;43.076;25.626;2023-06-10T04:37:19;98675.63;;;21.26;55.86
11605;BME280;5858;43.076;25.626;2023-06-10T04:39:46;98801.69;;;22.25;55.00
11605;BME280;5858;43.076;25.626;2023-06-10T04:42:14;98805.47;;;22.65;54.87
11605;BME280;5858;43.076;25.626;2023-06-10T04:44:41;98711.44;;;22.26;54.06
11605;BME280;5858;43.076;25.626;2023-06-10T04:47:08;98798.38;;;22.84;52.76
11605;BME280;5858;43.076;25.626;2023-06-10T04:49:35;98750.38;;;22.62;51.85
11605;BME280;5858;43.076;25.626;2023-06-10T04:52:02;98693.75;;;22.24;51.78
11605;BME280;5858;43.076;25.626;2023-06-10T04:54:30;98606.53;;;21.98;51.45
11605;BME280;5858;43.076;25.626;2023-06-10T04:57:26;98729.84;;;23.01;50.69
11605;BME280;5858;43.076;25.626;2023-06-10T04:59:54;98581.97;;;22.29;49.96
11605;BME280;5858;43.076;25.626;2023-06-10T05:02:28;98685.44;;;22.80;49.78
11605;BME280;5858;43.076;25.626;2023-06-10T05:04:58;98683.31;;;22.56;50.13
11605;BME280;5858;43.076;25.626;2023-06-10T05:07:26;98611.41;;;22.17;50.84
11605;BME280;5858;43.076;25.626;2023-06-10T05:09:53;98831.22;;;23.48;51.23
11605;BME280;5858;43.076;25.626;2023-06-10T05:12:22;98672.84;;;22.94;49.94
11605;BME280;5858;43.076;25.626;2023-06-10T05:32:34;98713.44;;;23.06;51.06
11605;BME280;5858;43.076;25.626;2023-06-10T05:38:50;98690.72;;;23.26;50.44
11605;BME280;5858;43.076;25.626;2023-06-10T05:41:40;98768.66;;;24.01;49.43
11605;BME280;5858;43.076;25.626;2023-06-10T05:47:59;98637.13;;;24.13;46.43
11605;BME280;5858;43.076;25.626;2023-06-10T05:50:40;98676.38;;;25.23;45.46
11605;BME280;5858;43.076;25.626;2023-06-10T05:53:13;98734.84;;;25.56;44.81
11605;BME280;5858;43.076;25.626;2023-06-10T05:55:43;98710.75;;;25.34;44.32
11605;BME280;5858;43.076;25.626;2023-06-10T05:58:14;98592.53;;;24.84;43.88
11605;BME280;5858;43.076;25.626;2023-06-10T06:00:41;98754.75;;;25.99;43.40
11605;BME280;5858;43.076;25.626;2023-06-10T06:03:10;98589.28;;;25.25;42.47
11605;BME280;5858;43.076;25.626;2023-06-10T06:05:40;98801.91;;;26.39;43.20
11605;BME280;5858;43.076;25.626;2023-06-10T06:08:22;98783.69;;;26.10;42.79
11605;BME280;5858;43.076;25.626;2023-06-10T06:10:53;98662.84;;;25.31;43.52
11605;BME280;5858;43.076;25.626;2023-06-10T06:17:09;98808.41;;;25.86;44.97
11605;BME280;5858;43.076;25.626;2023-06-10T08:00:26;98610.16;;;23.72;56.34
11605;BME280;5858;43.076;25.626;2023-06-10T08:17:28;98561.25;;;24.71;51.33
11605;BME280;5858;43.076;25.626;2023-06-10T08:19:55;98665.56;;;25.50;50.47
11605;BME280;5858;43.076;25.626;2023-06-10T08:22:22;98782.09;;;26.23;51.30
11605;BME280;5858;43.076;25.626;2023-06-10T08:24:49;98575.03;;;24.85;52.52
11605;BME280;5858;43.076;25.626;2023-06-10T08:27:16;98575.00;;;25.09;52.42
11605;BME280;5858;43.076;25.626;2023-06-10T08:29:43;98655.66;;;25.35;52.36
11605;BME280;5858;43.076;25.626;2023-06-10T08:32:11;98650.75;;;25.51;52.71
11605;BME280;5858;43.076;25.626;2023-06-10T08:34:39;98649.34;;;25.54;52.07
11605;BME280;5858;43.076;25.626;2023-06-10T08:37:06;98658.97;;;25.51;52.62
11605;BME280;5858;43.076;25.626;2023-06-10T08:39:33;98581.44;;;25.18;51.07
11605;BME280;5858;43.076;25.626;2023-06-10T08:42:06;98725.53;;;26.27;52.08
11605;BME280;5858;43.076;25.626;2023-06-10T08:44:36;98681.53;;;26.32;53.49
11605;BME280;5858;43.076;25.626;2023-06-10T08:47:08;98670.38;;;26.28;52.68
11605;BME280;5858;43.076;25.626;2023-06-10T08:49:43;98567.88;;;25.78;51.62
11605;BME280;5858;43.076;25.626;2023-06-10T08:52:17;98708.97;;;26.92;51.15
11605;BME280;5858;43.076;25.626;2023-06-10T08:54:49;98693.63;;;26.77;49.43
11605;BME280;5858;43.076;25.626;2023-06-10T08:57:19;98759.97;;;27.25;48.63
11605;BME280;5858;43.076;25.626;2023-06-10T08:59:47;98668.81;;;26.82;49.10
11605;BME280;5858;43.076;25.626;2023-06-10T09:02:15;98740.44;;;27.27;47.06
11605;BME280;5858;43.076;25.626;2023-06-10T09:04:47;98671.56;;;26.55;49.54
11605;BME280;5858;43.076;25.626;2023-06-10T09:07:15;98673.91;;;26.75;48.12
11605;BME280;5858;43.076;25.626;2023-06-10T09:09:43;98557.69;;;26.11;50.35
11605;BME280;5858;43.076;25.626;2023-06-10T09:12:11;98668.31;;;26.20;48.25
11605;BME280;5858;43.076;25.626;2023-06-10T09:14:42;98559.88;;;25.30;49.01
11605;BME280;5858;43.076;25.626;2023-06-10T09:17:09;98547.34;;;25.43;49.54
11605;BME280;5858;43.076;25.626;2023-06-10T09:19:38;98582.28;;;26.02;50.33
11605;BME280;5858;43.076;25.626;2023-06-10T09:22:10;98785.50;;;27.40;47.69
11605;BME280;5858;43.076;25.626;2023-06-10T09:24:38;98606.31;;;26.52;47.99
11605;BME280;5858;43.076;25.626;2023-06-10T09:27:07;98722.34;;;26.99;48.51
11605;BME280;5858;43.076;25.626;2023-06-10T09:32:10;98760.47;;;28.05;47.11
11605;BME280;5858;43.076;25.626;2023-06-10T09:34:37;98599.59;;;27.57;46.96
11605;BME280;5858;43.076;25.626;2023-06-10T09:37:05;98568.44;;;27.84;47.15
11605;BME280;5858;43.076;25.626;2023-06-10T09:39:34;98768.28;;;29.66;47.22
11605;BME280;5858;43.076;25.626;2023-06-10T09:42:20;98529.28;;;28.58;43.85
11605;BME280;5858;43.076;25.626;2023-06-10T09:44:52;98669.81;;;29.58;43.39
11605;BME280;5858;43.076;25.626;2023-06-10T09:47:35;98710.06;;;29.94;42.83
11605;BME280;5858;43.076;25.626;2023-06-10T09:53:10;98560.66;;;29.05;43.37
11605;BME280;5858;43.076;25.626;2023-06-10T09:55:39;98593.75;;;28.74;43.10
11605;BME280;5858;43.076;25.626;2023-06-10T09:58:07;98541.16;;;27.66;44.98
11605;BME280;5858;43.076;25.626;2023-06-10T10:00:36;98683.91;;;27.84;46.37
11605;BME280;5858;43.076;25.626;2023-06-10T10:03:03;98617.88;;;27.04;46.97
11605;BME280;5858;43.076;25.626;2023-06-10T10:05:37;98666.78;;;27.65;47.81
11605;BME280;5858;43.076;25.626;2023-06-10T10:08:07;98642.75;;;27.93;49.72
11605;BME280;5858;43.076;25.626;2023-06-10T10:10:34;98550.81;;;27.41;49.94
11605;BME280;5858;43.076;25.626;2023-06-10T10:13:10;98591.41;;;27.88;47.45
11605;BME280;5858;43.076;25.626;2023-06-10T10:15:41;98653.91;;;28.41;46.66
11605;BME280;5858;43.076;25.626;2023-06-10T10:18:11;98717.56;;;29.19;45.78
11605;BME280;5858;43.076;25.626;2023-06-10T10:21:04;98724.38;;;29.22;44.52
11605;BME280;5858;43.076;25.626;2023-06-10T10:23:41;98724.38;;;29.30;44.97
11605;BME280;5858;43.076;25.626;2023-06-10T10:26:11;98681.19;;;28.91;44.84
11605;BME280;5858;43.076;25.626;2023-06-10T10:28:46;98724.31;;;29.04;43.72
11605;BME280;5858;43.076;25.626;2023-06-10T10:31:18;98706.56;;;28.48;42.20
11605;BME280;5858;43.076;25.626;2023-06-10T10:33:57;98716.84;;;28.65;42.97
11605;BME280;5858;43.076;25.626;2023-06-10T10:36:25;98573.50;;;27.91;40.74
11605;BME280;5858;43.076;25.626;2023-06-10T10:38:52;98729.66;;;28.70;41.58
11605;BME280;5858;43.076;25.626;2023-06-10T10:41:20;98532.34;;;27.55;42.51
11605;BME280;5858;43.076;25.626;2023-06-10T10:43:50;98672.28;;;28.32;40.55
11605;BME280;5858;43.076;25.626;2023-06-10T10:46:18;98674.09;;;28.14;41.93
11605;BME280;5858;43.076;25.626;2023-06-10T10:48:49;98592.25;;;27.31;42.08
11605;BME280;5858;43.076;25.626;2023-06-10T10:51:18;98682.09;;;27.80;42.98
11605;BME280;5858;43.076;25.626;2023-06-10T10:54:12;98563.91;;;27.21;42.33
11605;BME280;5858;43.076;25.626;2023-06-10T10:59:56;98705.19;;;28.15;40.89
11605;BME280;5858;43.076;25.626;2023-06-10T11:02:36;98684.34;;;27.78;41.67
11605;BME280;5858;43.076;25.626;2023-06-10T11:05:06;98558.09;;;27.01;41.64
11605;BME280;5858;43.076;25.626;2023-06-10T11:07:34;98621.53;;;27.49;39.00
11605;BME280;5858;43.076;25.626;2023-06-10T11:10:04;98587.16;;;27.38;39.32
11605;BME280;5858;43.076;25.626;2023-06-10T11:12:50;98567.56;;;27.53;40.63
11605;BME280;5858;43.076;25.626;2023-06-10T11:15:23;98692.06;;;28.34;39.37
11605;BME280;5858;43.076;25.626;2023-06-10T11:18:13;98668.41;;;27.88;39.62
11605;BME280;5858;43.076;25.626;2023-06-10T11:20:58;98579.00;;;27.69;41.26
11605;BME280;5858;43.076;25.626;2023-06-10T11:23:38;98449.53;;;27.25;40.99
11605;BME280;5858;43.076;25.626;2023-06-10T11:26:30;98525.97;;;27.46;41.16
11605;BME280;5858;43.076;25.626;2023-06-10T11:29:09;98656.75;;;28.05;42.02
11605;BME280;5858;43.076;25.626;2023-06-10T11:31:45;98513.97;;;27.19;40.51
11605;BME280;5858;43.076;25.626;2023-06-10T11:34:13;98655.84;;;28.18;39.27
11605;BME280;5858;43.076;25.626;2023-06-10T11:36:42;98606.59;;;28.08;39.55
11605;BME280;5858;43.076;25.626;2023-06-10T11:39:11;98514.81;;;27.96;39.42
11605;BME280;5858;43.076;25.626;2023-06-10T11:41:39;98608.16;;;28.63;39.61
11605;BME280;5858;43.076;25.626;2023-06-10T11:44:10;98546.59;;;28.50;41.34
11605;BME280;5858;43.076;25.626;2023-06-10T11:46:39;98552.25;;;28.45;40.94
11605;BME280;5858;43.076;25.626;2023-06-10T11:49:09;98634.84;;;28.53;41.32
11605;BME280;5858;43.076;25.626;2023-06-10T11:51:37;98631.47;;;28.26;42.01
11605;BME280;5858;43.076;25.626;2023-06-10T11:54:07;98611.25;;;28.30;41.29
11605;BME280;5858;43.076;25.626;2023-06-10T11:56:35;98625.75;;;28.22;40.84
11605;BME280;5858;43.076;25.626;2023-06-10T11:59:03;98626.50;;;28.36;39.74
11605;BME280;5858;43.076;25.626;2023-06-10T12:01:34;98574.66;;;28.30;41.03
11605;BME280;5858;43.076;25.626;2023-06-10T12:04:03;98549.31;;;28.10;37.71
11605;BME280;5858;43.076;25.626;2023-06-10T12:06:45;98490.16;;;27.90;38.29
11605;BME280;5858;43.076;25.626;2023-06-10T12:09:20;98508.19;;;28.05;37.20
11605;BME280;5858;43.076;25.626;2023-06-10T12:11:49;98392.34;;;27.58;37.13
11605;BME280;5858;43.076;25.626;2023-06-10T12:14:52;98534.97;;;28.70;40.04
11605;BME280;5858;43.076;25.626;2023-06-10T12:17:20;98479.66;;;28.32;36.28
11605;BME280;5858;43.076;25.626;2023-06-10T12:19:48;98534.63;;;28.63;38.64
11605;BME280;5858;43.076;25.626;2023-06-10T12:22:17;98469.72;;;28.22;38.91
11605;BME280;5858;43.076;25.626;2023-06-10T12:24:45;98545.56;;;29.03;38.82
11605;BME280;5858;43.076;25.626;2023-06-10T12:27:25;98462.09;;;28.85;38.24
11605;BME280;5858;43.076;25.626;2023-06-10T12:29:55;98601.97;;;29.31;38.87
11605;BME280;5858;43.076;25.626;2023-06-10T12:32:35;98410.16;;;28.18;37.07
11605;BME280;5858;43.076;25.626;2023-06-10T12:35:03;98542.00;;;29.11;36.50
11605;BME280;5858;43.076;25.626;2023-06-10T12:37:33;98596.28;;;29.02;38.05
11605;BME280;5858;43.076;25.626;2023-06-10T12:40:00;98570.19;;;28.91;37.92
11605;BME280;5858;43.076;25.626;2023-06-10T12:42:28;98591.44;;;29.07;37.91
11605;BME280;5858;43.076;25.626;2023-06-10T12:45:00;98571.81;;;29.18;36.01
11605;BME280;5858;43.076;25.626;2023-06-10T12:47:30;98506.94;;;28.68;35.81
11605;BME280;5858;43.076;25.626;2023-06-10T12:50:04;98552.22;;;29.02;34.33
11605;BME280;5858;43.076;25.626;2023-06-10T12:52:33;98485.91;;;28.15;34.52
11605;BME280;5858;43.076;25.626;2023-06-10T12:55:04;98521.16;;;28.53;34.00
11605;BME280;5858;43.076;25.626;2023-06-10T12:57:34;98383.88;;;27.86;34.09
11605;BME280;5858;43.076;25.626;2023-06-10T13:00:03;98593.88;;;29.09;33.57
11605;BME280;5858;43.076;25.626;2023-06-10T13:02:33;98474.91;;;28.15;34.08
11605;BME280;5858;43.076;25.626;2023-06-10T13:05:01;98581.06;;;28.87;33.58
11605;BME280;5858;43.076;25.626;2023-06-10T13:07:29;98591.59;;;29.28;33.44
11605;BME280;5858;43.076;25.626;2023-06-10T13:09:58;98470.38;;;28.85;33.63
11605;BME280;5858;43.076;25.626;2023-06-10T13:12:26;98525.00;;;29.52;33.01
11605;BME280;5858;43.076;25.626;2023-06-10T13:14:56;98584.25;;;30.01;30.62
11605;BME280;5858;43.076;25.626;2023-06-10T13:17:24;98587.41;;;29.65;31.86
11605;BME280;5858;43.076;25.626;2023-06-10T13:19:51;98580.88;;;29.96;31.02
11605;BME280;5858;43.076;25.626;2023-06-10T13:22:18;98588.00;;;30.05;30.85
11605;BME280;5858;43.076;25.626;2023-06-10T13:24:45;98547.91;;;29.99;30.66
11605;BME280;5858;43.076;25.626;2023-06-10T13:27:17;98509.16;;;29.87;31.30
11605;BME280;5858;43.076;25.626;2023-06-10T13:29:47;98453.00;;;29.28;32.47
11605;BME280;5858;43.076;25.626;2023-06-10T13:32:14;98379.31;;;28.64;32.54
11605;BME280;5858;43.076;25.626;2023-06-10T13:34:41;98507.97;;;29.33;34.09
11605;BME280;5858;43.076;25.626;2023-06-10T13:37:09;98429.59;;;28.13;35.21
11605;BME280;5858;43.076;25.626;2023-06-10T13:39:38;98611.69;;;28.94;36.05
11605;BME280;5858;43.076;25.626;2023-06-10T13:42:09;98546.09;;;28.48;34.45
11605;BME280;5858;43.076;25.626;2023-06-10T13:44:39;98529.22;;;28.01;35.41
11605;BME280;5858;43.076;25.626;2023-06-10T13:47:22;98534.38;;;28.34;35.96
11605;BME280;5858;43.076;25.626;2023-06-10T13:49:50;98527.94;;;28.07;36.67
11605;BME280;5858;43.076;25.626;2023-06-10T13:52:20;98460.63;;;27.65;36.45
11605;BME280;5858;43.076;25.626;2023-06-10T13:54:48;98491.41;;;27.76;35.10
11605;BME280;5858;43.076;25.626;2023-06-10T13:57:17;98384.78;;;26.88;34.79
11605;BME280;5858;43.076;25.626;2023-06-10T13:59:46;98356.28;;;26.76;34.07
11605;BME280;5858;43.076;25.626;2023-06-10T14:02:14;98355.63;;;26.70;33.96
11605;BME280;5858;43.076;25.626;2023-06-10T14:04:44;98412.03;;;27.21;34.58
11605;BME280;5858;43.076;25.626;2023-06-10T14:07:25;98493.34;;;27.75;34.42
11605;BME280;5858;43.076;25.626;2023-06-10T14:09:53;98583.41;;;28.32;33.97
11605;BME280;5858;43.076;25.626;2023-06-10T14:12:21;98577.28;;;28.04;35.00
11605;BME280;5858;43.076;25.626;2023-06-10T14:14:50;98494.47;;;27.29;35.04
11605;BME280;5858;43.076;25.626;2023-06-10T14:17:20;98451.47;;;27.25;34.74
11605;BME280;5858;43.076;25.626;2023-06-10T14:20:02;98366.78;;;26.51;35.22
11605;BME280;5858;43.076;25.626;2023-06-10T14:22:33;98349.53;;;26.37;34.78
11605;BME280;5858;43.076;25.626;2023-06-10T14:25:08;98575.94;;;27.70;34.99
11605;BME280;5858;43.076;25.626;2023-06-10T14:27:36;98437.97;;;27.37;35.27
11605;BME280;5858;43.076;25.626;2023-06-10T14:30:07;98497.81;;;27.94;34.12
11605;BME280;5858;43.076;25.626;2023-06-10T14:32:36;98349.72;;;27.39;33.38
11605;BME280;5858;43.076;25.626;2023-06-10T14:35:04;98333.19;;;27.61;32.67
11605;BME280;5858;43.076;25.626;2023-06-10T14:37:34;98542.00;;;29.20;32.53
11605;BME280;5858;43.076;25.626;2023-06-10T14:40:05;98541.19;;;29.36;31.75
11605;BME280;5858;43.076;25.626;2023-06-10T14:42:43;98308.38;;;27.92;32.82
11605;BME280;5858;43.076;25.626;2023-06-10T14:45:37;98535.78;;;29.83;32.91
11605;BME280;5858;43.076;25.626;2023-06-10T14:48:14;98462.88;;;29.55;31.84
11605;BME280;5858;43.076;25.626;2023-06-10T14:50:44;98475.88;;;29.92;31.41
11605;BME280;5858;43.076;25.626;2023-06-10T14:53:16;98495.22;;;30.30;31.45
11605;BME280;5858;43.076;25.626;2023-06-10T14:55:44;98336.91;;;29.29;31.73
11605;BME280;5858;43.076;25.626;2023-06-10T14:58:19;98337.59;;;29.18;31.17
11605;BME280;5858;43.076;25.626;2023-06-10T15:00:48;98493.94;;;29.81;31.74
11605;BME280;5858;43.076;25.626;2023-06-10T15:03:17;98337.06;;;28.86;32.63
11605;BME280;5858;43.076;25.626;2023-06-10T15:05:53;98537.53;;;29.96;31.18
11605;BME280;5858;43.076;25.626;2023-06-10T15:08:21;98526.03;;;29.94;31.84
11605;BME280;5858;43.076;25.626;2023-06-10T15:10:51;98530.34;;;30.13;30.81
11605;BME280;5858;43.076;25.626;2023-06-10T15:13:23;98492.66;;;30.17;31.41
11605;BME280;5858;43.076;25.626;2023-06-10T15:15:52;98416.19;;;29.88;30.75
11605;BME280;5858;43.076;25.626;2023-06-10T15:18:19;98386.72;;;30.09;32.30
11605;BME280;5858;43.076;25.626;2023-06-10T15:20:46;98425.28;;;30.18;31.80
11605;BME280;5858;43.076;25.626;2023-06-10T15:23:17;98458.94;;;30.11;31.04
11605;BME280;5858;43.076;25.626;2023-06-10T15:25:44;98404.28;;;29.96;31.53
11605;BME280;5858;43.076;25.626;2023-06-10T15:28:12;98402.13;;;29.72;31.68
11605;BME280;5858;43.076;25.626;2023-06-10T15:30:40;98534.66;;;30.90;30.27
11605;BME280;5858;43.076;25.626;2023-06-10T15:33:09;98517.09;;;30.65;29.85
11605;BME280;5858;43.076;25.626;2023-06-10T15:35:36;98351.50;;;29.30;31.04
11605;BME280;5858;43.076;25.626;2023-06-10T15:38:03;98531.19;;;30.04;31.01
11605;BME280;5858;43.076;25.626;2023-06-10T15:40:31;98537.56;;;29.88;31.32
11605;BME280;5858;43.076;25.626;2023-06-10T15:42:59;98499.66;;;29.59;32.95
11605;BME280;5858;43.076;25.626;2023-06-10T15:45:28;98342.59;;;28.43;32.62
11605;BME280;5858;43.076;25.626;2023-06-10T15:47:55;98424.97;;;28.74;32.11
11605;BME280;5858;43.076;25.626;2023-06-10T15:50:25;98325.31;;;27.77;32.70